sensor_id;sensor_type;location;lat;lon;timestamp;P1;P2;P0
55549;PMS7003;41397;49.972;18.944;2022-09-09T00:04:38;5;5;3
55549;PMS7003;41397;49.972;18.944;2022-09-09T00:07:48;4;4;4
55549;PMS7003;41397;49.972;18.944;2022-09-09T00:10:54;5;5;4
55549;PMS7003;41397;49.972;18.944;2022-09-09T00:14:00;5;5;5
55549;PMS7003;41397;49.972;18.944;2022-09-09T00:20:28;5;5;5
55549;PMS7003;41397;49.972;18.944;2022-09-09T00:23:38;5;5;4
55549;PMS7003;41397;49.972;18.944;2022-09-09T00:26:47;3;3;3
55549;PMS7003;41397;49.972;18.944;2022-09-09T00:29:56;4;4;4
55549;PMS7003;41397;49.972;18.944;2022-09-09T00:33:08;4;4;3
55549;PMS7003;41397;49.972;18.944;2022-09-09T00:36:18;5;5;4
55549;PMS7003;41397;49.972;18.944;2022-09-09T00:42:44;2;2;2
55549;PMS7003;41397;49.972;18.944;2022-09-09T00:58:52;5;5;4
55549;PMS7003;41397;49.972;18.944;2022-09-09T01:02:00;3;3;3
55549;PMS7003;41397;49.972;18.944;2022-09-09T01:05:05;4;4;3
55549;PMS7003;41397;49.972;18.944;2022-09-09T01:14:51;3;3;3
55549;PMS7003;41397;49.972;18.944;2022-09-09T01:18:08;4;4;4
55549;PMS7003;41397;49.972;18.944;2022-09-09T01:24:31;3;3;2
55549;PMS7003;41397;49.972;18.944;2022-09-09T01:27:41;3;3;2
55549;PMS7003;41397;49.972;18.944;2022-09-09T01:30:46;4;4;4
55549;PMS7003;41397;49.972;18.944;2022-09-09T01:33:48;2;2;2
55549;PMS7003;41397;49.972;18.944;2022-09-09T01:40:05;4;4;3
55549;PMS7003;41397;49.972;18.944;2022-09-09T01:43:07;1;1;1
55549;PMS7003;41397;49.972;18.944;2022-09-09T01:46:08;3;3;3
55549;PMS7003;41397;49.972;18.944;2022-09-09T01:49:19;2;2;2
55549;PMS7003;41397;49.972;18.944;2022-09-09T01:52:20;3;3;2
55549;PMS7003;41397;49.972;18.944;2022-09-09T01:55:32;4;4;3
55549;PMS7003;41397;49.972;18.944;2022-09-09T02:01:48;4;4;3
55549;PMS7003;41397;49.972;18.944;2022-09-09T02:04:59;4;4;4
55549;PMS7003;41397;49.972;18.944;2022-09-09T02:08:08;3;3;3
55549;PMS7003;41397;49.972;18.944;2022-09-09T02:11:16;3;3;3
55549;PMS7003;41397;49.972;18.944;2022-09-09T02:14:23;2;2;2
55549;PMS7003;41397;49.972;18.944;2022-09-09T02:17:29;2;2;2
55549;PMS7003;41397;49.972;18.944;2022-09-09T02:20:36;2;2;2
55549;PMS7003;41397;49.972;18.944;2022-09-09T02:23:40;4;4;3
55549;PMS7003;41397;49.972;18.944;2022-09-09T02:26:44;4;4;4
55549;PMS7003;41397;49.972;18.944;2022-09-09T02:29:48;3;3;2
55549;PMS7003;41397;49.972;18.944;2022-09-09T02:32:52;5;5;4
55549;PMS7003;41397;49.972;18.944;2022-09-09T02:36:00;6;6;5
55549;PMS7003;41397;49.972;18.944;2022-09-09T02:39:07;5;5;5
55549;PMS7003;41397;49.972;18.944;2022-09-09T02:42:10;4;4;4
55549;PMS7003;41397;49.972;18.944;2022-09-09T02:45:15;5;5;4
55549;PMS7003;41397;49.972;18.944;2022-09-09T02:51:40;5;5;4
55549;PMS7003;41397;49.972;18.944;2022-09-09T02:54:47;6;6;6
55549;PMS7003;41397;49.972;18.944;2022-09-09T02:57:58;4;4;3
55549;PMS7003;41397;49.972;18.944;2022-09-09T03:01:06;5;5;5
55549;PMS7003;41397;49.972;18.944;2022-09-09T03:04:09;3;3;2
55549;PMS7003;41397;49.972;18.944;2022-09-09T03:07:11;4;4;3
55549;PMS7003;41397;49.972;18.944;2022-09-09T03:10:12;5;5;5
55549;PMS7003;41397;49.972;18.944;2022-09-09T03:13:14;5;5;4
55549;PMS7003;41397;49.972;18.944;2022-09-09T03:16:15;6;6;5
55549;PMS7003;41397;49.972;18.944;2022-09-09T03:19:17;6;6;4
55549;PMS7003;41397;49.972;18.944;2022-09-09T03:22:19;4;4;3
55549;PMS7003;41397;49.972;18.944;2022-09-09T03:25:22;7;7;5
55549;PMS7003;41397;49.972;18.944;2022-09-09T03:28:29;6;6;5
55549;PMS7003;41397;49.972;18.944;2022-09-09T03:31:33;7;7;5
55549;PMS7003;41397;49.972;18.944;2022-09-09T03:34:36;7;7;6
55549;PMS7003;41397;49.972;18.944;2022-09-09T03:37:40;37;29;18
55549;PMS7003;41397;49.972;18.944;2022-09-09T03:40:49;34;29;20
55549;PMS7003;41397;49.972;18.944;2022-09-09T03:43:56;9;9;8
55549;PMS7003;41397;49.972;18.944;2022-09-09T03:46:57;5;5;5
55549;PMS7003;41397;49.972;18.944;2022-09-09T03:50:01;9;9;7
55549;PMS7003;41397;49.972;18.944;2022-09-09T03:53:02;7;7;7
55549;PMS7003;41397;49.972;18.944;2022-09-09T03:56:04;5;5;4
55549;PMS7003;41397;49.972;18.944;2022-09-09T03:59:07;7;7;5
55549;PMS7003;41397;49.972;18.944;2022-09-09T04:02:09;7;7;6
55549;PMS7003;41397;49.972;18.944;2022-09-09T04:05:10;11;11;9
55549;PMS7003;41397;49.972;18.944;2022-09-09T04:08:12;5;5;5
55549;PMS7003;41397;49.972;18.944;2022-09-09T04:11:13;6;6;5
55549;PMS7003;41397;49.972;18.944;2022-09-09T04:14:15;5;5;4
55549;PMS7003;41397;49.972;18.944;2022-09-09T04:17:17;10;10;7
55549;PMS7003;41397;49.972;18.944;2022-09-09T04:20:18;8;8;7
55549;PMS7003;41397;49.972;18.944;2022-09-09T04:23:20;6;6;5
55549;PMS7003;41397;49.972;18.944;2022-09-09T04:26:22;8;8;8
55549;PMS7003;41397;49.972;18.944;2022-09-09T04:29:23;8;8;7
55549;PMS7003;41397;49.972;18.944;2022-09-09T04:32:24;5;5;4
55549;PMS7003;41397;49.972;18.944;2022-09-09T04:35:28;5;5;5
55549;PMS7003;41397;49.972;18.944;2022-09-09T04:38:29;8;8;8
55549;PMS7003;41397;49.972;18.944;2022-09-09T04:41:31;5;5;5
55549;PMS7003;41397;49.972;18.944;2022-09-09T04:44:32;8;8;5
55549;PMS7003;41397;49.972;18.944;2022-09-09T04:47:34;7;7;5
55549;PMS7003;41397;49.972;18.944;2022-09-09T04:50:36;5;5;5
55549;PMS7003;41397;49.972;18.944;2022-09-09T04:53:37;6;6;5
55549;PMS7003;41397;49.972;18.944;2022-09-09T04:56:40;2;2;1
55549;PMS7003;41397;49.972;18.944;2022-09-09T04:59:43;5;5;4
55549;PMS7003;41397;49.972;18.944;2022-09-09T05:02:46;5;5;3
55549;PMS7003;41397;49.972;18.944;2022-09-09T05:05:48;5;5;5
55549;PMS7003;41397;49.972;18.944;2022-09-09T05:08:49;8;8;8
55549;PMS7003;41397;49.972;18.944;2022-09-09T05:11:51;6;6;5
55549;PMS7003;41397;49.972;18.944;2022-09-09T05:14:52;11;11;9
55549;PMS7003;41397;49.972;18.944;2022-09-09T05:18:03;7;7;6
55549;PMS7003;41397;49.972;18.944;2022-09-09T05:21:01;5;5;4
55549;PMS7003;41397;49.972;18.944;2022-09-09T05:24:03;3;3;2
55549;PMS7003;41397;49.972;18.944;2022-09-09T05:27:04;3;3;2
55549;PMS7003;41397;49.972;18.944;2022-09-09T05:30:07;2;2;2
55549;PMS7003;41397;49.972;18.944;2022-09-09T05:33:09;21;21;15
55549;PMS7003;41397;49.972;18.944;2022-09-09T05:36:11;8;8;7
55549;PMS7003;41397;49.972;18.944;2022-09-09T05:39:14;5;5;5
55549;PMS7003;41397;49.972;18.944;2022-09-09T05:42:15;8;8;8
55549;PMS7003;41397;49.972;18.944;2022-09-09T05:45:17;9;9;8
55549;PMS7003;41397;49.972;18.944;2022-09-09T05:48:18;6;6;5
55549;PMS7003;41397;49.972;18.944;2022-09-09T05:51:20;6;4;4
55549;PMS7003;41397;49.972;18.944;2022-09-09T05:54:28;7;7;7
55549;PMS7003;41397;49.972;18.944;2022-09-09T05:57:32;5;5;5
55549;PMS7003;41397;49.972;18.944;2022-09-09T06:00:34;4;4;2
55549;PMS7003;41397;49.972;18.944;2022-09-09T06:03:37;4;4;4
55549;PMS7003;41397;49.972;18.944;2022-09-09T06:06:40;4;4;3
55549;PMS7003;41397;49.972;18.944;2022-09-09T06:09:42;4;4;3
55549;PMS7003;41397;49.972;18.944;2022-09-09T06:12:43;5;5;4
55549;PMS7003;41397;49.972;18.944;2022-09-09T06:18:56;3;3;3
55549;PMS7003;41397;49.972;18.944;2022-09-09T06:21:58;4;4;3
55549;PMS7003;41397;49.972;18.944;2022-09-09T06:24:59;5;5;4
55549;PMS7003;41397;49.972;18.944;2022-09-09T06:28:02;3;3;3
55549;PMS7003;41397;49.972;18.944;2022-09-09T06:31:05;4;4;3
55549;PMS7003;41397;49.972;18.944;2022-09-09T06:34:08;5;5;5
55549;PMS7003;41397;49.972;18.944;2022-09-09T06:37:10;1;1;1
55549;PMS7003;41397;49.972;18.944;2022-09-09T06:40:11;4;4;3
55549;PMS7003;41397;49.972;18.944;2022-09-09T06:43:13;3;3;2
55549;PMS7003;41397;49.972;18.944;2022-09-09T06:46:15;4;4;3
55549;PMS7003;41397;49.972;18.944;2022-09-09T06:49:19;4;4;4
55549;PMS7003;41397;49.972;18.944;2022-09-09T06:52:20;2;2;1
55549;PMS7003;41397;49.972;18.944;2022-09-09T06:55:22;4;4;2
55549;PMS7003;41397;49.972;18.944;2022-09-09T06:58:23;3;3;3
55549;PMS7003;41397;49.972;18.944;2022-09-09T07:01:25;4;4;4
55549;PMS7003;41397;49.972;18.944;2022-09-09T07:04:30;1;1;1
55549;PMS7003;41397;49.972;18.944;2022-09-09T07:07:32;3;3;3
55549;PMS7003;41397;49.972;18.944;2022-09-09T07:10:33;0;0;0
55549;PMS7003;41397;49.972;18.944;2022-09-09T07:13:35;3;3;3
55549;PMS7003;41397;49.972;18.944;2022-09-09T07:16:36;3;3;3
55549;PMS7003;41397;49.972;18.944;2022-09-09T07:19:38;4;4;3
55549;PMS7003;41397;49.972;18.944;2022-09-09T07:22:39;2;2;1
55549;PMS7003;41397;49.972;18.944;2022-09-09T07:25:44;3;3;3
55549;PMS7003;41397;49.972;18.944;2022-09-09T07:28:46;4;4;3
55549;PMS7003;41397;49.972;18.944;2022-09-09T07:31:48;2;2;2
55549;PMS7003;41397;49.972;18.944;2022-09-09T07:34:49;2;2;2
55549;PMS7003;41397;49.972;18.944;2022-09-09T07:37:51;4;4;3
55549;PMS7003;41397;49.972;18.944;2022-09-09T07:40:52;5;5;4
55549;PMS7003;41397;49.972;18.944;2022-09-09T07:43:53;2;2;2
55549;PMS7003;41397;49.972;18.944;2022-09-09T07:46:55;4;4;3
55549;PMS7003;41397;49.972;18.944;2022-09-09T07:49:57;3;3;3
55549;PMS7003;41397;49.972;18.944;2022-09-09T07:52:59;4;4;2
55549;PMS7003;41397;49.972;18.944;2022-09-09T07:56:05;4;4;3
55549;PMS7003;41397;49.972;18.944;2022-09-09T07:59:11;5;5;4
55549;PMS7003;41397;49.972;18.944;2022-09-09T08:02:15;3;3;3
55549;PMS7003;41397;49.972;18.944;2022-09-09T08:05:16;2;2;2
55549;PMS7003;41397;49.972;18.944;2022-09-09T08:08:18;4;4;4
55549;PMS7003;41397;49.972;18.944;2022-09-09T08:11:20;2;2;1
55549;PMS7003;41397;49.972;18.944;2022-09-09T08:14:24;1;1;1
55549;PMS7003;41397;49.972;18.944;2022-09-09T08:17:25;4;4;3
55549;PMS7003;41397;49.972;18.944;2022-09-09T08:20:27;2;2;2
55549;PMS7003;41397;49.972;18.944;2022-09-09T08:23:30;2;2;2
55549;PMS7003;41397;49.972;18.944;2022-09-09T08:26:32;4;4;3
55549;PMS7003;41397;49.972;18.944;2022-09-09T08:29:38;2;2;1
55549;PMS7003;41397;49.972;18.944;2022-09-09T08:32:40;1;1;1
55549;PMS7003;41397;49.972;18.944;2022-09-09T08:35:49;0;0;0
55549;PMS7003;41397;49.972;18.944;2022-09-09T08:38:54;1;1;1
55549;PMS7003;41397;49.972;18.944;2022-09-09T08:45:24;1;1;1
55549;PMS7003;41397;49.972;18.944;2022-09-09T08:51:42;4;4;2
55549;PMS7003;41397;49.972;18.944;2022-09-09T08:54:43;5;5;4
55549;PMS7003;41397;49.972;18.944;2022-09-09T08:57:45;4;4;2
55549;PMS7003;41397;49.972;18.944;2022-09-09T09:10:32;2;2;2
55549;PMS7003;41397;49.972;18.944;2022-09-09T09:13:44;3;3;3
55549;PMS7003;41397;49.972;18.944;2022-09-09T09:17:02;1;1;1
55549;PMS7003;41397;49.972;18.944;2022-09-09T09:20:05;3;3;2
55549;PMS7003;41397;49.972;18.944;2022-09-09T09:23:16;4;4;3
55549;PMS7003;41397;49.972;18.944;2022-09-09T09:26:33;2;2;2
55549;PMS7003;41397;49.972;18.944;2022-09-09T09:29:36;4;4;4
55549;PMS7003;41397;49.972;18.944;2022-09-09T09:32:41;10;4;3
55549;PMS7003;41397;49.972;18.944;2022-09-09T09:35:50;3;3;3
55549;PMS7003;41397;49.972;18.944;2022-09-09T09:38:55;2;2;2
55549;PMS7003;41397;49.972;18.944;2022-09-09T09:41:58;1;1;0
55549;PMS7003;41397;49.972;18.944;2022-09-09T09:48:33;3;3;3
55549;PMS7003;41397;49.972;18.944;2022-09-09T09:51:35;1;1;1
55549;PMS7003;41397;49.972;18.944;2022-09-09T09:54:38;0;0;0
55549;PMS7003;41397;49.972;18.944;2022-09-09T09:57:42;4;4;3
55549;PMS7003;41397;49.972;18.944;2022-09-09T10:00:49;2;2;1
55549;PMS7003;41397;49.972;18.944;2022-09-09T10:03:53;2;2;2
55549;PMS7003;41397;49.972;18.944;2022-09-09T10:06:57;1;1;1
55549;PMS7003;41397;49.972;18.944;2022-09-09T10:09:59;1;1;1
55549;PMS7003;41397;49.972;18.944;2022-09-09T10:13:06;1;1;1
55549;PMS7003;41397;49.972;18.944;2022-09-09T10:19:32;1;1;1
55549;PMS7003;41397;49.972;18.944;2022-09-09T10:22:36;1;1;1
55549;PMS7003;41397;49.972;18.944;2022-09-09T10:35:28;0;0;0
55549;PMS7003;41397;49.972;18.944;2022-09-09T10:38:41;1;1;1
55549;PMS7003;41397;49.972;18.944;2022-09-09T10:41:49;0;0;0
55549;PMS7003;41397;49.972;18.944;2022-09-09T10:45:20;1;1;1
55549;PMS7003;41397;49.972;18.944;2022-09-09T10:51:33;0;0;0
55549;PMS7003;41397;49.972;18.944;2022-09-09T10:57:58;0;0;0
55549;PMS7003;41397;49.972;18.944;2022-09-09T11:01:24;1;1;0
55549;PMS7003;41397;49.972;18.944;2022-09-09T11:04:30;1;1;1
55549;PMS7003;41397;49.972;18.944;2022-09-09T11:07:36;2;2;2
55549;PMS7003;41397;49.972;18.944;2022-09-09T11:20:27;0;0;0
55549;PMS7003;41397;49.972;18.944;2022-09-09T11:26:43;1;1;1
55549;PMS7003;41397;49.972;18.944;2022-09-09T11:39:44;0;0;0
55549;PMS7003;41397;49.972;18.944;2022-09-09T11:42:49;0;0;0
55549;PMS7003;41397;49.972;18.944;2022-09-09T11:46:01;0;0;0
55549;PMS7003;41397;49.972;18.944;2022-09-09T11:49:40;1;1;1
55549;PMS7003;41397;49.972;18.944;2022-09-09T11:55:39;0;0;0
55549;PMS7003;41397;49.972;18.944;2022-09-09T11:58:44;2;2;2
55549;PMS7003;41397;49.972;18.944;2022-09-09T12:01:58;0;0;0
55549;PMS7003;41397;49.972;18.944;2022-09-09T12:05:08;0;0;0
55549;PMS7003;41397;49.972;18.944;2022-09-09T12:08:16;0;0;0
55549;PMS7003;41397;49.972;18.944;2022-09-09T12:11:28;4;4;3
55549;PMS7003;41397;49.972;18.944;2022-09-09T12:14:36;0;0;0
55549;PMS7003;41397;49.972;18.944;2022-09-09T12:17:43;0;0;0
55549;PMS7003;41397;49.972;18.944;2022-09-09T12:24:01;3;3;3
55549;PMS7003;41397;49.972;18.944;2022-09-09T12:30:22;2;2;2
55549;PMS7003;41397;49.972;18.944;2022-09-09T12:33:35;1;1;1
55549;PMS7003;41397;49.972;18.944;2022-09-09T12:36:43;3;3;3
55549;PMS7003;41397;49.972;18.944;2022-09-09T12:39:57;1;1;1
55549;PMS7003;41397;49.972;18.944;2022-09-09T12:43:00;0;0;0
55549;PMS7003;41397;49.972;18.944;2022-09-09T12:46:03;2;2;2
55549;PMS7003;41397;49.972;18.944;2022-09-09T12:52:35;0;0;0
55549;PMS7003;41397;49.972;18.944;2022-09-09T12:55:39;1;1;1
55549;PMS7003;41397;49.972;18.944;2022-09-09T12:58:46;1;1;1
55549;PMS7003;41397;49.972;18.944;2022-09-09T13:01:58;2;2;2
55549;PMS7003;41397;49.972;18.944;2022-09-09T13:08:13;2;2;2
55549;PMS7003;41397;49.972;18.944;2022-09-09T13:11:17;1;1;1
55549;PMS7003;41397;49.972;18.944;2022-09-09T13:14:28;2;2;2
55549;PMS7003;41397;49.972;18.944;2022-09-09T13:17:37;4;4;4
55549;PMS7003;41397;49.972;18.944;2022-09-09T13:20:44;1;1;1
55549;PMS7003;41397;49.972;18.944;2022-09-09T13:23:50;0;0;0
55549;PMS7003;41397;49.972;18.944;2022-09-09T13:26:56;14;14;11
55549;PMS7003;41397;49.972;18.944;2022-09-09T13:30:19;3;3;2
55549;PMS7003;41397;49.972;18.944;2022-09-09T13:36:27;2;2;2
55549;PMS7003;41397;49.972;18.944;2022-09-09T13:39:32;2;2;2
55549;PMS7003;41397;49.972;18.944;2022-09-09T13:42:37;2;2;2
55549;PMS7003;41397;49.972;18.944;2022-09-09T13:45:51;1;1;1
55549;PMS7003;41397;49.972;18.944;2022-09-09T13:49:00;3;3;2
55549;PMS7003;41397;49.972;18.944;2022-09-09T13:52:12;3;3;2
55549;PMS7003;41397;49.972;18.944;2022-09-09T13:55:17;3;3;3
55549;PMS7003;41397;49.972;18.944;2022-09-09T13:58:26;2;2;1
55549;PMS7003;41397;49.972;18.944;2022-09-09T14:01:27;4;4;4
55549;PMS7003;41397;49.972;18.944;2022-09-09T14:04:29;1;1;1
55549;PMS7003;41397;49.972;18.944;2022-09-09T14:07:31;3;3;3
55549;PMS7003;41397;49.972;18.944;2022-09-09T14:10:34;2;2;2
55549;PMS7003;41397;49.972;18.944;2022-09-09T14:13:38;3;3;3
55549;PMS7003;41397;49.972;18.944;2022-09-09T14:16:40;3;3;2
55549;PMS7003;41397;49.972;18.944;2022-09-09T14:19:41;1;1;1
55549;PMS7003;41397;49.972;18.944;2022-09-09T14:22:43;3;3;1
55549;PMS7003;41397;49.972;18.944;2022-09-09T14:25:45;3;3;3
55549;PMS7003;41397;49.972;18.944;2022-09-09T14:28:47;1;1;1
55549;PMS7003;41397;49.972;18.944;2022-09-09T14:31:49;4;4;4
55549;PMS7003;41397;49.972;18.944;2022-09-09T14:34:50;3;3;3
55549;PMS7003;41397;49.972;18.944;2022-09-09T14:37:51;4;4;3
55549;PMS7003;41397;49.972;18.944;2022-09-09T14:40:52;1;1;1
55549;PMS7003;41397;49.972;18.944;2022-09-09T14:43:54;4;4;4
55549;PMS7003;41397;49.972;18.944;2022-09-09T14:46:57;3;3;2
55549;PMS7003;41397;49.972;18.944;2022-09-09T14:49:59;0;0;0
55549;PMS7003;41397;49.972;18.944;2022-09-09T14:53:04;2;2;2
55549;PMS7003;41397;49.972;18.944;2022-09-09T14:59:15;2;2;1
55549;PMS7003;41397;49.972;18.944;2022-09-09T15:02:16;4;4;4
55549;PMS7003;41397;49.972;18.944;2022-09-09T15:05:17;12;12;10
55549;PMS7003;41397;49.972;18.944;2022-09-09T15:08:19;3;3;3
55549;PMS7003;41397;49.972;18.944;2022-09-09T15:11:21;3;3;3
55549;PMS7003;41397;49.972;18.944;2022-09-09T15:14:25;5;5;4
55549;PMS7003;41397;49.972;18.944;2022-09-09T15:17:26;3;3;3
55549;PMS7003;41397;49.972;18.944;2022-09-09T15:20:28;4;4;4
55549;PMS7003;41397;49.972;18.944;2022-09-09T15:23:32;1;1;1
55549;PMS7003;41397;49.972;18.944;2022-09-09T15:26:40;5;5;5
55549;PMS7003;41397;49.972;18.944;2022-09-09T15:29:42;2;2;2
55549;PMS7003;41397;49.972;18.944;2022-09-09T15:32:44;5;5;5
55549;PMS7003;41397;49.972;18.944;2022-09-09T15:35:45;2;2;1
55549;PMS7003;41397;49.972;18.944;2022-09-09T15:38:48;2;2;1
55549;PMS7003;41397;49.972;18.944;2022-09-09T15:41:50;10;10;9
55549;PMS7003;41397;49.972;18.944;2022-09-09T15:44:51;8;8;7
55549;PMS7003;41397;49.972;18.944;2022-09-09T15:47:53;8;8;7
55549;PMS7003;41397;49.972;18.944;2022-09-09T15:54:04;6;6;6
55549;PMS7003;41397;49.972;18.944;2022-09-09T15:57:07;5;5;3
55549;PMS7003;41397;49.972;18.944;2022-09-09T16:00:12;3;3;2
55549;PMS7003;41397;49.972;18.944;2022-09-09T16:03:15;4;4;4
55549;PMS7003;41397;49.972;18.944;2022-09-09T16:06:22;5;5;4
55549;PMS7003;41397;49.972;18.944;2022-09-09T16:09:28;3;3;3
55549;PMS7003;41397;49.972;18.944;2022-09-09T16:12:30;4;4;3
55549;PMS7003;41397;49.972;18.944;2022-09-09T16:15:31;3;3;3
55549;PMS7003;41397;49.972;18.944;2022-09-09T16:18:38;6;6;5
55549;PMS7003;41397;49.972;18.944;2022-09-09T16:21:42;4;4;3
55549;PMS7003;41397;49.972;18.944;2022-09-09T16:24:45;4;4;4
55549;PMS7003;41397;49.972;18.944;2022-09-09T16:27:46;2;2;2
55549;PMS7003;41397;49.972;18.944;2022-09-09T16:30:48;6;6;5
55549;PMS7003;41397;49.972;18.944;2022-09-09T16:33:50;4;4;4
55549;PMS7003;41397;49.972;18.944;2022-09-09T16:36:52;9;9;6
55549;PMS7003;41397;49.972;18.944;2022-09-09T16:39:53;4;4;4
55549;PMS7003;41397;49.972;18.944;2022-09-09T16:42:55;5;5;5
55549;PMS7003;41397;49.972;18.944;2022-09-09T16:45:57;6;6;6
55549;PMS7003;41397;49.972;18.944;2022-09-09T16:49:01;16;16;11
55549;PMS7003;41397;49.972;18.944;2022-09-09T16:52:05;26;25;16
55549;PMS7003;41397;49.972;18.944;2022-09-09T16:55:07;20;20;14
55549;PMS7003;41397;49.972;18.944;2022-09-09T16:58:14;17;17;13
55549;PMS7003;41397;49.972;18.944;2022-09-09T17:01:16;18;18;9
55549;PMS7003;41397;49.972;18.944;2022-09-09T17:04:18;13;13;10
55549;PMS7003;41397;49.972;18.944;2022-09-09T17:07:24;17;17;13
55549;PMS7003;41397;49.972;18.944;2022-09-09T17:10:25;38;34;22
55549;PMS7003;41397;49.972;18.944;2022-09-09T17:13:27;22;22;16
55549;PMS7003;41397;49.972;18.944;2022-09-09T17:16:29;18;18;15
55549;PMS7003;41397;49.972;18.944;2022-09-09T17:19:34;15;15;13
55549;PMS7003;41397;49.972;18.944;2022-09-09T17:22:36;17;17;9
55549;PMS7003;41397;49.972;18.944;2022-09-09T17:25:37;22;17;12
55549;PMS7003;41397;49.972;18.944;2022-09-09T17:28:39;15;15;11
55549;PMS7003;41397;49.972;18.944;2022-09-09T17:31:42;17;17;14
55549;PMS7003;41397;49.972;18.944;2022-09-09T17:34:43;16;16;11
55549;PMS7003;41397;49.972;18.944;2022-09-09T17:37:46;18;18;11
55549;PMS7003;41397;49.972;18.944;2022-09-09T17:40:47;16;16;11
55549;PMS7003;41397;49.972;18.944;2022-09-09T17:43:49;12;12;11
55549;PMS7003;41397;49.972;18.944;2022-09-09T17:46:52;16;16;12
55549;PMS7003;41397;49.972;18.944;2022-09-09T17:49:55;12;12;10
55549;PMS7003;41397;49.972;18.944;2022-09-09T17:52:56;16;16;12
55549;PMS7003;41397;49.972;18.944;2022-09-09T17:59:07;11;11;9
55549;PMS7003;41397;49.972;18.944;2022-09-09T18:02:12;18;18;14
55549;PMS7003;41397;49.972;18.944;2022-09-09T18:05:13;18;18;14
55549;PMS7003;41397;49.972;18.944;2022-09-09T18:08:15;11;11;11
55549;PMS7003;41397;49.972;18.944;2022-09-09T18:11:18;15;15;12
55549;PMS7003;41397;49.972;18.944;2022-09-09T18:14:21;19;19;12
55549;PMS7003;41397;49.972;18.944;2022-09-09T18:17:30;28;27;18
55549;PMS7003;41397;49.972;18.944;2022-09-09T18:20:32;16;16;13
55549;PMS7003;41397;49.972;18.944;2022-09-09T18:23:34;18;18;16
55549;PMS7003;41397;49.972;18.944;2022-09-09T18:26:37;19;19;14
55549;PMS7003;41397;49.972;18.944;2022-09-09T18:29:40;19;19;15
55549;PMS7003;41397;49.972;18.944;2022-09-09T18:32:41;18;18;13
55549;PMS7003;41397;49.972;18.944;2022-09-09T18:35:42;21;21;17
55549;PMS7003;41397;49.972;18.944;2022-09-09T18:38:47;18;18;14
55549;PMS7003;41397;49.972;18.944;2022-09-09T18:41:56;21;21;14
55549;PMS7003;41397;49.972;18.944;2022-09-09T18:45:00;22;18;14
55549;PMS7003;41397;49.972;18.944;2022-09-09T18:48:02;23;23;16
55549;PMS7003;41397;49.972;18.944;2022-09-09T18:51:08;17;17;15
55549;PMS7003;41397;49.972;18.944;2022-09-09T18:54:11;30;28;19
55549;PMS7003;41397;49.972;18.944;2022-09-09T18:57:21;23;23;16
55549;PMS7003;41397;49.972;18.944;2022-09-09T19:00:23;41;34;21
55549;PMS7003;41397;49.972;18.944;2022-09-09T19:03:25;35;31;22
55549;PMS7003;41397;49.972;18.944;2022-09-09T19:06:28;32;29;21
55549;PMS7003;41397;49.972;18.944;2022-09-09T19:09:31;35;31;22
55549;PMS7003;41397;49.972;18.944;2022-09-09T19:12:33;39;33;25
55549;PMS7003;41397;49.972;18.944;2022-09-09T19:15:35;37;32;25
55549;PMS7003;41397;49.972;18.944;2022-09-09T19:18:37;47;40;25
55549;PMS7003;41397;49.972;18.944;2022-09-09T19:21:47;42;36;24
55549;PMS7003;41397;49.972;18.944;2022-09-09T19:24:56;35;32;23
55549;PMS7003;41397;49.972;18.944;2022-09-09T19:27:59;42;32;21
55549;PMS7003;41397;49.972;18.944;2022-09-09T19:31:02;42;36;23
55549;PMS7003;41397;49.972;18.944;2022-09-09T19:34:07;46;39;24
55549;PMS7003;41397;49.972;18.944;2022-09-09T19:37:09;44;37;25
55549;PMS7003;41397;49.972;18.944;2022-09-09T19:40:12;42;36;25
55549;PMS7003;41397;49.972;18.944;2022-09-09T19:43:14;41;35;24
55549;PMS7003;41397;49.972;18.944;2022-09-09T19:46:16;37;32;23
55549;PMS7003;41397;49.972;18.944;2022-09-09T19:49:20;37;33;24
55549;PMS7003;41397;49.972;18.944;2022-09-09T19:52:22;39;34;24
55549;PMS7003;41397;49.972;18.944;2022-09-09T19:55:23;38;33;23
55549;PMS7003;41397;49.972;18.944;2022-09-09T19:58:24;36;32;23
55549;PMS7003;41397;49.972;18.944;2022-09-09T20:01:28;33;30;22
55549;PMS7003;41397;49.972;18.944;2022-09-09T20:04:31;33;30;20
55549;PMS7003;41397;49.972;18.944;2022-09-09T20:07:34;32;30;19
55549;PMS7003;41397;49.972;18.944;2022-09-09T20:10:36;17;17;11
55549;PMS7003;41397;49.972;18.944;2022-09-09T20:13:37;37;32;24
55549;PMS7003;41397;49.972;18.944;2022-09-09T20:16:39;37;32;22
55549;PMS7003;41397;49.972;18.944;2022-09-09T20:19:42;34;31;20
55549;PMS7003;41397;49.972;18.944;2022-09-09T20:22:43;31;28;17
55549;PMS7003;41397;49.972;18.944;2022-09-09T20:25:47;27;25;17
55549;PMS7003;41397;49.972;18.944;2022-09-09T20:28:49;29;27;20
55549;PMS7003;41397;49.972;18.944;2022-09-09T20:31:52;25;24;19
55549;PMS7003;41397;49.972;18.944;2022-09-09T20:34:53;25;24;18
55549;PMS7003;41397;49.972;18.944;2022-09-09T20:37:55;25;24;18
55549;PMS7003;41397;49.972;18.944;2022-09-09T20:40:56;33;30;22
55549;PMS7003;41397;49.972;18.944;2022-09-09T20:44:04;29;27;18
55549;PMS7003;41397;49.972;18.944;2022-09-09T20:47:08;32;29;19
55549;PMS7003;41397;49.972;18.944;2022-09-09T20:50:10;30;27;20
55549;PMS7003;41397;49.972;18.944;2022-09-09T20:53:16;33;30;22
55549;PMS7003;41397;49.972;18.944;2022-09-09T20:56:18;36;31;23
55549;PMS7003;41397;49.972;18.944;2022-09-09T20:59:21;40;34;22
55549;PMS7003;41397;49.972;18.944;2022-09-09T21:02:25;40;35;24
55549;PMS7003;41397;49.972;18.944;2022-09-09T21:05:26;44;36;23
55549;PMS7003;41397;49.972;18.944;2022-09-09T21:08:28;29;27;20
55549;PMS7003;41397;49.972;18.944;2022-09-09T21:11:29;35;30;17
